createdAt,value
2023-05-14T00:00:31.248Z,8.45
2023-05-14T00:01:31.216Z,8.43
2023-05-14T00:02:31.280Z,8.41
2023-05-14T00:03:31.283Z,8.39
2023-05-14T00:04:31.404Z,8.38
2023-05-14T00:05:31.187Z,8.37
2023-05-14T00:06:31.169Z,8.37
2023-05-14T00:07:31.189Z,8.36
2023-05-14T00:08:31.129Z,8.35
2023-05-14T00:09:31.119Z,8.34
2023-05-14T00:10:31.126Z,8.33
2023-05-14T00:11:31.089Z,8.32
2023-05-14T00:12:31.091Z,8.32
2023-05-14T00:13:31.102Z,8.32
2023-05-14T00:14:31.052Z,8.32
2023-05-14T00:15:32.949Z,8.32
2023-05-14T00:16:31.131Z,8.32
2023-05-14T00:17:31.058Z,8.32
2023-05-14T00:18:31.077Z,8.33
2023-05-14T00:19:30.998Z,8.33
2023-05-14T00:20:30.989Z,8.33
2023-05-14T00:21:30.972Z,8.33
2023-05-14T00:22:30.971Z,8.33
2023-05-14T00:23:30.939Z,8.33
2023-05-14T00:24:30.934Z,8.33
2023-05-14T00:25:30.917Z,8.33
2023-05-14T00:26:30.905Z,8.33
2023-05-14T00:27:30.902Z,8.33
2023-05-14T00:28:30.917Z,8.33
2023-05-14T00:29:30.873Z,8.34
2023-05-14T00:30:30.847Z,8.34
2023-05-14T00:31:30.927Z,8.34
2023-05-14T00:32:30.845Z,8.35
2023-05-14T00:33:30.815Z,8.35
2023-05-14T00:34:30.813Z,8.35
2023-05-14T00:35:30.796Z,8.35
2023-05-14T00:36:30.815Z,8.34
2023-05-14T00:37:30.762Z,8.33
2023-05-14T00:38:30.749Z,8.32
2023-05-14T00:39:30.732Z,8.31
2023-05-14T00:40:30.738Z,8.29
2023-05-14T00:41:30.717Z,8.28
2023-05-14T00:42:30.698Z,8.27
2023-05-14T00:43:30.691Z,8.25
2023-05-14T00:44:30.669Z,8.24
2023-05-14T00:45:30.673Z,8.24
2023-05-14T00:46:30.677Z,8.23
2023-05-14T00:47:30.718Z,8.23
2023-05-14T00:48:30.620Z,8.23
2023-05-14T00:49:30.634Z,8.24
2023-05-14T00:50:30.598Z,8.24
2023-05-14T00:51:30.582Z,8.24
2023-05-14T00:52:30.596Z,8.24
2023-05-14T00:53:30.562Z,8.23
2023-05-14T00:54:30.567Z,8.23
2023-05-14T00:55:30.532Z,8.23
2023-05-14T00:56:30.515Z,8.24
2023-05-14T00:57:30.509Z,8.24
2023-05-14T00:58:30.513Z,8.24
2023-05-14T00:59:30.475Z,8.25
2023-05-14T01:00:30.462Z,8.25
2023-05-14T01:01:30.478Z,8.26
2023-05-14T01:02:30.524Z,8.27
2023-05-14T01:03:30.506Z,8.28
2023-05-14T01:04:30.430Z,8.29
2023-05-14T01:05:30.413Z,8.30
2023-05-14T01:06:30.396Z,8.31
2023-05-14T01:07:30.404Z,8.32
2023-05-14T01:08:30.362Z,8.34
2023-05-14T01:09:30.358Z,8.35
2023-05-14T01:10:30.364Z,8.36
2023-05-14T01:11:30.323Z,8.38
2023-05-14T01:12:30.302Z,8.40
2023-05-14T01:13:30.322Z,8.42
2023-05-14T01:14:30.277Z,8.43
2023-05-14T01:15:30.270Z,8.45
2023-05-14T01:16:30.308Z,8.47
2023-05-14T01:17:30.327Z,8.49
2023-05-14T01:18:30.283Z,8.51
2023-05-14T01:19:30.234Z,8.53
2023-05-14T01:20:30.203Z,8.55
2023-05-14T01:21:30.193Z,8.57
2023-05-14T01:22:30.207Z,8.60
2023-05-14T01:23:30.167Z,8.61
2023-05-14T01:24:30.148Z,8.63
2023-05-14T01:25:30.149Z,8.65
2023-05-14T01:26:30.123Z,8.66
2023-05-14T01:27:30.109Z,8.67
2023-05-14T01:28:30.132Z,8.68
2023-05-14T01:29:30.090Z,8.68
2023-05-14T01:30:30.079Z,8.68
2023-05-14T01:31:30.111Z,8.68
2023-05-14T01:32:30.112Z,8.69
2023-05-14T01:33:30.052Z,8.69
2023-05-14T01:34:30.049Z,8.69
2023-05-14T01:35:30.011Z,8.69
2023-05-14T01:36:30.022Z,8.69
2023-05-14T01:37:29.992Z,8.69
2023-05-14T01:38:29.979Z,8.69
2023-05-14T01:39:29.971Z,8.68
2023-05-14T01:40:29.965Z,8.68
2023-05-14T01:41:29.934Z,8.68
2023-05-14T01:42:29.955Z,8.68
2023-05-14T01:43:29.942Z,8.67
2023-05-14T01:44:29.904Z,8.67
2023-05-14T01:45:29.912Z,8.67
2023-05-14T01:46:29.922Z,8.67
2023-05-14T01:47:29.868Z,8.68
2023-05-14T01:48:29.855Z,8.68
2023-05-14T01:49:29.827Z,8.68
2023-05-14T01:50:29.814Z,8.68
2023-05-14T01:51:29.817Z,8.68
2023-05-14T01:52:29.790Z,8.69
2023-05-14T01:53:29.780Z,8.69
2023-05-14T01:54:29.761Z,8.69
2023-05-14T01:55:29.774Z,8.70
2023-05-14T01:56:29.749Z,8.70
2023-05-14T01:57:29.758Z,8.71
2023-05-14T01:58:29.710Z,8.72
2023-05-14T01:59:29.705Z,8.72
2023-05-14T02:00:29.701Z,8.73
2023-05-14T02:01:29.690Z,8.73
2023-05-14T02:02:29.741Z,8.73
2023-05-14T02:03:29.681Z,8.74
2023-05-14T02:04:29.648Z,8.74
2023-05-14T02:05:29.630Z,8.74
2023-05-14T02:06:29.611Z,8.74
2023-05-14T02:07:29.595Z,8.74
2023-05-14T02:08:29.619Z,8.74
2023-05-14T02:09:29.597Z,8.74
2023-05-14T02:10:29.569Z,8.74
2023-05-14T02:11:29.544Z,8.74
2023-05-14T02:12:29.536Z,8.74
2023-05-14T02:13:29.543Z,8.75
2023-05-14T02:14:29.572Z,8.75
2023-05-14T02:15:29.529Z,8.75
2023-05-14T02:16:29.695Z,8.75
2023-05-14T02:17:29.545Z,8.76
2023-05-14T02:18:29.520Z,8.76
2023-05-14T02:19:29.447Z,8.76
2023-05-14T02:20:29.468Z,8.76
2023-05-14T02:21:29.411Z,8.75
2023-05-14T02:22:29.441Z,8.75
2023-05-14T02:23:40.543Z,8.75
2023-05-14T02:24:29.417Z,8.75
2023-05-14T02:25:29.374Z,8.75
2023-05-14T02:26:29.377Z,8.74
2023-05-14T02:27:29.363Z,8.73
2023-05-14T02:28:29.341Z,8.73
2023-05-14T02:29:29.318Z,8.73
2023-05-14T02:30:29.333Z,8.72
2023-05-14T02:31:29.349Z,8.72
2023-05-14T02:32:29.340Z,8.72
2023-05-14T02:33:29.342Z,8.72
2023-05-14T02:34:29.254Z,8.72
2023-05-14T02:35:29.244Z,8.72
2023-05-14T02:36:29.256Z,8.72
2023-05-14T02:37:29.217Z,8.72
2023-05-14T02:38:29.256Z,8.71
2023-05-14T02:39:29.222Z,8.70
2023-05-14T02:40:29.184Z,8.70
2023-05-14T02:41:29.168Z,8.70
2023-05-14T02:42:29.201Z,8.70
2023-05-14T02:43:29.155Z,8.70
2023-05-14T02:44:29.149Z,8.70
2023-05-14T02:45:29.129Z,8.70
2023-05-14T02:46:29.140Z,8.70
2023-05-14T02:47:29.141Z,8.70
2023-05-14T02:48:29.077Z,8.69
2023-05-14T02:49:29.063Z,8.68
2023-05-14T02:50:29.062Z,8.67
2023-05-14T02:51:29.056Z,8.65
2023-05-14T02:52:29.066Z,8.64
2023-05-14T02:53:29.032Z,8.62
2023-05-14T02:54:29.005Z,8.61
2023-05-14T02:55:28.993Z,8.60
2023-05-14T02:56:28.989Z,8.59
2023-05-14T02:57:28.964Z,8.58
2023-05-14T02:58:28.970Z,8.57
2023-05-14T02:59:28.960Z,8.55
2023-05-14T03:00:28.946Z,8.54
2023-05-14T03:01:29.126Z,8.52
2023-05-14T03:02:29.035Z,8.51
2023-05-14T03:03:28.915Z,8.51
2023-05-14T03:04:28.870Z,8.50
2023-05-14T03:05:28.881Z,8.50
2023-05-14T03:06:28.873Z,8.49
2023-05-14T03:07:28.827Z,8.48
2023-05-14T03:08:28.842Z,8.47
2023-05-14T03:09:28.830Z,8.47
2023-05-14T03:10:28.804Z,8.47
2023-05-14T03:11:28.819Z,8.47
2023-05-14T03:12:28.773Z,8.46
2023-05-14T03:13:28.755Z,8.45
2023-05-14T03:14:28.747Z,8.45
2023-05-14T03:15:28.733Z,8.44
2023-05-14T03:16:28.769Z,8.44
2023-05-14T03:17:28.802Z,8.43
2023-05-14T03:18:28.714Z,8.43
2023-05-14T03:19:28.701Z,8.43
2023-05-14T03:20:28.674Z,8.43
2023-05-14T03:21:28.703Z,8.43
2023-05-14T03:22:28.653Z,8.43
2023-05-14T03:23:28.650Z,8.42
2023-05-14T03:24:28.624Z,8.42
2023-05-14T03:25:28.616Z,8.42
2023-05-14T03:26:28.610Z,8.42
2023-05-14T03:27:28.602Z,8.42
2023-05-14T03:28:28.566Z,8.43
2023-05-14T03:29:28.562Z,8.43
2023-05-14T03:30:28.585Z,8.44
2023-05-14T03:31:28.538Z,8.44
2023-05-14T03:32:28.559Z,8.43
2023-05-14T03:33:28.514Z,8.42
2023-05-14T03:34:28.515Z,8.42
2023-05-14T03:35:28.496Z,8.41
2023-05-14T03:36:28.479Z,8.41
2023-05-14T03:37:28.452Z,8.41
2023-05-14T03:38:28.439Z,8.41
2023-05-14T03:39:28.440Z,8.41
2023-05-14T03:40:28.417Z,8.41
2023-05-14T03:41:28.401Z,8.41
2023-05-14T03:42:28.385Z,8.41
2023-05-14T03:43:28.370Z,8.41
2023-05-14T03:44:28.377Z,8.42
2023-05-14T03:45:28.382Z,8.42
2023-05-14T03:46:28.340Z,8.42
2023-05-14T03:47:28.352Z,8.42
2023-05-14T03:48:29.257Z,8.42
2023-05-14T03:49:28.329Z,8.43
2023-05-14T03:50:28.315Z,8.43
2023-05-14T03:51:28.278Z,8.43
2023-05-14T03:52:28.283Z,8.43
2023-05-14T03:53:28.242Z,8.44
2023-05-14T03:54:28.252Z,8.44
2023-05-14T03:55:28.230Z,8.44
2023-05-14T03:56:28.238Z,8.44
2023-05-14T03:57:28.196Z,8.45
2023-05-14T03:58:28.229Z,8.45
2023-05-14T03:59:28.159Z,8.46
2023-05-14T04:00:28.158Z,8.46
2023-05-14T04:01:28.175Z,8.46
2023-05-14T04:02:28.227Z,8.46
2023-05-14T04:03:28.346Z,8.45
2023-05-14T04:04:28.148Z,8.46
2023-05-14T04:05:28.088Z,8.46
2023-05-14T04:06:28.085Z,8.47
2023-05-14T04:07:28.074Z,8.46
2023-05-14T04:08:28.086Z,8.46
2023-05-14T04:09:28.064Z,8.46
2023-05-14T04:10:28.026Z,8.46
2023-05-14T04:11:28.021Z,8.47
2023-05-14T04:12:28.019Z,8.46
2023-05-14T04:13:27.982Z,8.46
2023-05-14T04:14:28.005Z,8.46
2023-05-14T04:15:27.962Z,8.47
2023-05-14T04:16:28.006Z,8.48
2023-05-14T04:17:27.982Z,8.50
2023-05-14T04:18:27.970Z,8.50
2023-05-14T04:19:27.938Z,8.51
2023-05-14T04:20:27.920Z,8.51
2023-05-14T04:21:27.891Z,8.51
2023-05-14T04:22:27.870Z,8.51
2023-05-14T04:23:27.869Z,8.53
2023-05-14T04:24:27.875Z,8.54
2023-05-14T04:25:27.858Z,8.55
2023-05-14T04:26:27.826Z,8.56
2023-05-14T04:27:27.822Z,8.56
2023-05-14T04:28:27.806Z,8.57
2023-05-14T04:29:27.812Z,8.59
2023-05-14T04:30:27.775Z,8.60
2023-05-14T04:31:27.788Z,8.61
2023-05-14T04:32:27.755Z,8.61
2023-05-14T04:33:27.740Z,8.61
2023-05-14T04:34:27.717Z,8.61
2023-05-14T04:35:27.717Z,8.61
2023-05-14T04:36:27.686Z,8.62
2023-05-14T04:37:27.697Z,8.63
2023-05-14T04:38:27.694Z,8.64
2023-05-14T04:39:27.649Z,8.63
2023-05-14T04:40:27.658Z,8.62
2023-05-14T04:41:27.648Z,8.61
2023-05-14T04:42:27.614Z,8.60
2023-05-14T04:43:27.633Z,8.60
2023-05-14T04:44:27.588Z,8.60
2023-05-14T04:45:27.607Z,8.60
2023-05-14T04:46:27.682Z,8.60
2023-05-14T04:47:27.601Z,8.60
2023-05-14T04:48:27.540Z,8.60
2023-05-14T04:49:27.557Z,8.61
2023-05-14T04:50:27.513Z,8.61
2023-05-14T04:51:27.537Z,8.63
2023-05-14T04:52:27.486Z,8.65
2023-05-14T04:53:27.508Z,8.67
2023-05-14T04:54:27.483Z,8.68
2023-05-14T04:55:27.494Z,8.69
2023-05-14T04:56:27.444Z,8.71
2023-05-14T04:57:27.452Z,8.72
2023-05-14T04:58:27.406Z,8.74
2023-05-14T04:59:27.398Z,8.75
2023-05-14T05:00:27.506Z,8.75
2023-05-14T05:01:27.415Z,8.73
2023-05-14T05:02:27.435Z,8.71
2023-05-14T05:03:27.446Z,8.70
2023-05-14T05:04:27.353Z,8.69
2023-05-14T05:05:27.361Z,8.69
2023-05-14T05:06:27.359Z,8.68
2023-05-14T05:07:27.335Z,8.69
2023-05-14T05:08:27.282Z,8.70
2023-05-14T05:09:27.279Z,8.71
2023-05-14T05:10:27.272Z,8.70
2023-05-14T05:11:27.269Z,8.69
2023-05-14T05:12:27.249Z,8.68
2023-05-14T05:13:27.233Z,8.68
2023-05-14T05:14:27.237Z,8.67
2023-05-14T05:15:27.210Z,8.66
2023-05-14T05:16:27.350Z,8.66
2023-05-14T05:17:27.256Z,8.67
2023-05-14T05:18:27.182Z,8.67
2023-05-14T05:19:39.601Z,8.67
2023-05-14T05:20:27.154Z,8.67
2023-05-14T05:21:27.152Z,8.66
2023-05-14T05:22:27.110Z,8.65
2023-05-14T05:23:27.129Z,8.64
2023-05-14T05:24:27.083Z,8.65
2023-05-14T05:25:27.085Z,8.65
2023-05-14T05:26:27.056Z,8.64
2023-05-14T05:27:27.052Z,8.65
2023-05-14T05:28:27.040Z,8.66
2023-05-14T05:29:27.054Z,8.66
2023-05-14T05:30:27.019Z,8.67
2023-05-14T05:31:27.029Z,8.67
2023-05-14T05:32:27.032Z,8.65
2023-05-14T05:33:26.990Z,8.64
2023-05-14T05:34:26.954Z,8.63
2023-05-14T05:35:27.006Z,8.63
2023-05-14T05:36:26.926Z,8.64
2023-05-14T05:37:26.986Z,8.63
2023-05-14T05:38:26.904Z,8.62
2023-05-14T05:39:26.914Z,8.61
2023-05-14T05:40:26.884Z,8.62
2023-05-14T05:41:26.883Z,8.62
2023-05-14T05:42:26.868Z,8.63
2023-05-14T05:43:26.835Z,8.63
2023-05-14T05:44:26.831Z,8.63
2023-05-14T05:45:26.809Z,8.63
2023-05-14T05:46:26.829Z,8.63
2023-05-14T05:47:26.847Z,8.62
2023-05-14T05:48:26.780Z,8.62
2023-05-14T05:49:26.765Z,8.62
2023-05-14T05:50:26.764Z,8.62
2023-05-14T05:51:26.735Z,8.62
2023-05-14T05:52:26.759Z,8.63
2023-05-14T05:53:26.709Z,8.62
2023-05-14T05:54:26.705Z,8.62
2023-05-14T05:55:26.689Z,8.62
2023-05-14T05:56:26.658Z,8.62
2023-05-14T05:57:26.656Z,8.62
2023-05-14T05:58:26.704Z,8.62
2023-05-14T05:59:26.646Z,8.63
2023-05-14T06:00:26.898Z,8.64
2023-05-14T06:01:26.629Z,8.63
2023-05-14T06:02:26.762Z,8.63
2023-05-14T06:03:26.636Z,8.63
2023-05-14T06:04:26.588Z,8.63
2023-05-14T06:05:26.663Z,8.64
2023-05-14T06:06:26.550Z,8.65
2023-05-14T06:07:26.532Z,8.65
2023-05-14T06:08:26.542Z,8.66
2023-05-14T06:09:26.495Z,8.68
2023-05-14T06:10:26.614Z,8.69
2023-05-14T06:11:26.512Z,8.70
2023-05-14T06:12:26.467Z,8.70
2023-05-14T06:13:26.468Z,8.71
2023-05-14T06:14:26.454Z,8.74
2023-05-14T06:15:26.430Z,8.78
2023-05-14T06:16:26.495Z,8.82
2023-05-14T06:17:26.404Z,8.84
2023-05-14T06:18:26.432Z,8.85
2023-05-14T06:19:26.389Z,8.84
2023-05-14T06:20:26.611Z,8.83
2023-05-14T06:21:26.367Z,8.81
2023-05-14T06:22:26.350Z,8.80
2023-05-14T06:23:26.323Z,8.79
2023-05-14T06:24:26.311Z,8.79
2023-05-14T06:25:26.297Z,8.81
2023-05-14T06:26:26.300Z,8.84
2023-05-14T06:27:26.301Z,8.84
2023-05-14T06:28:26.287Z,8.84
2023-05-14T06:29:26.248Z,8.84
2023-05-14T06:30:26.452Z,8.84
2023-05-14T06:31:26.281Z,8.84
2023-05-14T06:32:26.260Z,8.85
2023-05-14T06:33:26.209Z,8.85
2023-05-14T06:34:26.182Z,8.86
2023-05-14T06:35:26.201Z,8.87
2023-05-14T06:36:26.158Z,8.89
2023-05-14T06:37:26.162Z,8.91
2023-05-14T06:38:26.133Z,8.93
2023-05-14T06:39:26.126Z,8.94
2023-05-14T06:40:26.255Z,8.95
2023-05-14T06:41:26.115Z,8.95
2023-05-14T06:42:26.144Z,8.94
2023-05-14T06:43:26.085Z,8.93
2023-05-14T06:44:26.067Z,8.91
2023-05-14T06:45:26.048Z,8.90
2023-05-14T06:46:26.056Z,8.90
2023-05-14T06:47:26.041Z,8.91
2023-05-14T06:48:26.097Z,8.92
2023-05-14T06:49:25.994Z,8.92
2023-05-14T06:50:26.040Z,8.91
2023-05-14T06:51:25.986Z,8.88
2023-05-14T06:52:25.946Z,8.87
2023-05-14T06:53:25.944Z,8.85
2023-05-14T06:54:25.948Z,8.85
2023-05-14T06:55:25.909Z,8.85
2023-05-14T06:56:25.900Z,8.85
2023-05-14T06:57:25.879Z,8.85
2023-05-14T06:58:25.894Z,8.85
2023-05-14T06:59:25.882Z,8.84
2023-05-14T07:00:26.180Z,8.83
2023-05-14T07:01:25.860Z,8.82
2023-05-14T07:02:25.856Z,8.82
2023-05-14T07:03:25.822Z,8.81
2023-05-14T07:04:25.897Z,8.81
2023-05-14T07:05:25.793Z,8.81
2023-05-14T07:06:25.796Z,8.82
2023-05-14T07:07:25.781Z,8.81
2023-05-14T07:08:25.742Z,8.81
2023-05-14T07:09:25.770Z,8.80
2023-05-14T07:10:25.950Z,8.79
2023-05-14T07:11:25.731Z,8.79
2023-05-14T07:12:25.688Z,8.80
2023-05-14T07:13:27.680Z,8.81
2023-05-14T07:14:25.666Z,8.82
2023-05-14T07:15:25.680Z,8.83
2023-05-14T07:16:25.679Z,8.85
2023-05-14T07:17:25.677Z,8.88
2023-05-14T07:18:25.651Z,8.92
2023-05-14T07:19:25.607Z,8.96
2023-05-14T07:20:25.885Z,8.98
2023-05-14T07:21:25.569Z,9.01
2023-05-14T07:22:25.569Z,9.04
2023-05-14T07:23:25.562Z,9.08
2023-05-14T07:24:25.542Z,9.11
2023-05-14T07:25:25.557Z,9.13
2023-05-14T07:26:25.528Z,9.15
2023-05-14T07:27:25.496Z,9.18
2023-05-14T07:28:25.517Z,9.19
2023-05-14T07:29:25.517Z,9.20
2023-05-14T07:30:25.850Z,9.22
2023-05-14T07:31:25.501Z,9.24
2023-05-14T07:32:25.464Z,9.26
2023-05-14T07:33:25.442Z,9.31
2023-05-14T07:34:25.412Z,9.35
2023-05-14T07:35:25.414Z,9.39
2023-05-14T07:36:25.416Z,9.44
2023-05-14T07:37:25.378Z,9.48
2023-05-14T07:38:25.380Z,9.55
2023-05-14T07:39:25.354Z,9.61
2023-05-14T07:40:25.668Z,9.63
2023-05-14T07:41:25.328Z,9.59
2023-05-14T07:42:34.995Z,9.56
2023-05-14T07:43:25.314Z,9.56
2023-05-14T07:44:25.277Z,9.58
2023-05-14T07:45:25.276Z,9.60
2023-05-14T07:46:25.254Z,9.65
2023-05-14T07:47:25.285Z,9.73
2023-05-14T07:48:25.269Z,9.83
2023-05-14T07:49:25.211Z,9.91
2023-05-14T07:50:25.451Z,9.98
2023-05-14T07:51:25.197Z,10.06
2023-05-14T07:52:25.196Z,10.16
2023-05-14T07:53:25.183Z,10.24
2023-05-14T07:54:25.149Z,10.28
2023-05-14T07:55:25.332Z,10.28
2023-05-14T07:56:25.143Z,10.22
2023-05-14T07:57:25.136Z,10.15
2023-05-14T07:58:25.163Z,10.14
2023-05-14T07:59:25.093Z,10.18
2023-05-14T08:00:25.362Z,10.26
2023-05-14T08:01:25.057Z,10.35
2023-05-14T08:02:25.125Z,10.44
2023-05-14T08:03:25.212Z,10.52
2023-05-14T08:04:25.094Z,10.58
2023-05-14T08:05:25.039Z,10.63
2023-05-14T08:06:25.001Z,10.66
2023-05-14T08:07:25.007Z,10.69
2023-05-14T08:08:24.973Z,10.72
2023-05-14T08:09:24.959Z,10.73
2023-05-14T08:10:25.260Z,10.72
2023-05-14T08:11:24.965Z,10.72
2023-05-14T08:12:24.939Z,10.75
2023-05-14T08:13:24.914Z,10.81
2023-05-14T08:14:24.906Z,10.87
2023-05-14T08:15:27.582Z,10.92
2023-05-14T08:16:24.941Z,10.93
2023-05-14T08:17:24.913Z,10.90
2023-05-14T08:18:24.950Z,10.81
2023-05-14T08:19:24.838Z,10.67
2023-05-14T08:20:25.189Z,10.53
2023-05-14T08:21:24.818Z,10.41
2023-05-14T08:22:24.827Z,10.35
2023-05-14T08:23:24.792Z,10.36
2023-05-14T08:24:24.769Z,10.36
2023-05-14T08:25:24.782Z,10.37
2023-05-14T08:26:24.750Z,10.39
2023-05-14T08:27:24.736Z,10.41
2023-05-14T08:28:24.742Z,10.41
2023-05-14T08:29:24.722Z,10.39
2023-05-14T08:30:24.949Z,10.40
2023-05-14T08:31:24.740Z,10.40
2023-05-14T08:32:24.692Z,10.37
2023-05-14T08:33:24.664Z,10.33
2023-05-14T08:34:24.689Z,10.31
2023-05-14T08:35:24.629Z,10.32
2023-05-14T08:36:24.626Z,10.34
2023-05-14T08:37:24.609Z,10.37
2023-05-14T08:38:24.628Z,10.38
2023-05-14T08:39:24.569Z,10.38
2023-05-14T08:40:24.771Z,10.36
2023-05-14T08:41:24.575Z,10.34
2023-05-14T08:42:24.545Z,10.33
2023-05-14T08:43:24.525Z,10.35
2023-05-14T08:44:24.532Z,10.37
2023-05-14T08:45:24.525Z,10.40
2023-05-14T08:46:24.523Z,10.48
2023-05-14T08:47:24.527Z,10.57
2023-05-14T08:48:24.579Z,10.65
2023-05-14T08:49:24.495Z,10.72
2023-05-14T08:50:24.593Z,10.75
2023-05-14T08:51:24.452Z,10.79
2023-05-14T08:52:24.424Z,10.87
2023-05-14T08:53:24.405Z,10.90
2023-05-14T08:54:24.425Z,10.89
2023-05-14T08:55:24.367Z,10.86
2023-05-14T08:56:24.378Z,10.83
2023-05-14T08:57:24.378Z,10.83
2023-05-14T08:58:24.344Z,10.79
2023-05-14T08:59:24.317Z,10.75
2023-05-14T09:00:24.700Z,10.73
2023-05-14T09:01:24.651Z,10.71
2023-05-14T09:02:24.354Z,10.72
2023-05-14T09:03:24.325Z,10.73
2023-05-14T09:04:24.257Z,10.72
2023-05-14T09:05:24.244Z,10.73
2023-05-14T09:06:24.260Z,10.76
2023-05-14T09:07:24.216Z,10.79
2023-05-14T09:08:24.206Z,10.83
2023-05-14T09:09:24.244Z,10.86
2023-05-14T09:10:24.422Z,10.89
2023-05-14T09:11:24.165Z,10.92
2023-05-14T09:12:24.154Z,10.96
2023-05-14T09:13:25.318Z,10.99
2023-05-14T09:14:24.139Z,11.00
2023-05-14T09:15:24.139Z,11.02
2023-05-14T09:16:24.157Z,11.05
2023-05-14T09:17:24.110Z,11.09
2023-05-14T09:18:24.089Z,11.10
2023-05-14T09:19:24.092Z,11.14
2023-05-14T09:20:24.221Z,11.20
2023-05-14T09:21:24.086Z,11.25
2023-05-14T09:22:24.050Z,11.30
2023-05-14T09:23:24.026Z,11.36
2023-05-14T09:24:24.072Z,11.42
2023-05-14T09:25:23.991Z,11.49
2023-05-14T09:26:23.980Z,11.58
2023-05-14T09:27:23.987Z,11.61
2023-05-14T09:28:23.952Z,11.62
2023-05-14T09:29:23.938Z,11.60
2023-05-14T09:30:24.065Z,11.51
2023-05-14T09:31:23.946Z,11.47
2023-05-14T09:32:23.969Z,11.45
2023-05-14T09:33:23.930Z,11.47
2023-05-14T09:34:23.882Z,11.47
2023-05-14T09:35:23.902Z,11.44
2023-05-14T09:36:23.843Z,11.50
2023-05-14T09:37:23.851Z,11.70
2023-05-14T09:38:23.833Z,11.93
2023-05-14T09:39:23.834Z,12.20
2023-05-14T09:40:24.593Z,12.42
2023-05-14T09:41:23.794Z,12.61
2023-05-14T09:42:23.774Z,12.78
2023-05-14T09:43:23.775Z,12.91
2023-05-14T09:44:23.753Z,12.86
2023-05-14T09:45:23.767Z,12.70
2023-05-14T09:46:23.745Z,12.64
2023-05-14T09:47:23.763Z,12.77
2023-05-14T09:48:23.707Z,12.90
2023-05-14T09:49:23.718Z,12.81
2023-05-14T09:50:23.830Z,12.63
2023-05-14T09:51:23.691Z,12.56
2023-05-14T09:52:23.657Z,12.56
2023-05-14T09:53:23.636Z,12.60
2023-05-14T09:54:23.644Z,12.73
2023-05-14T09:55:23.614Z,12.92
2023-05-14T09:56:23.630Z,13.20
2023-05-14T09:57:23.585Z,13.39
2023-05-14T09:58:23.587Z,13.49
2023-05-14T09:59:23.609Z,13.52
2023-05-14T10:00:23.805Z,13.40
2023-05-14T10:01:23.587Z,13.25
2023-05-14T10:02:23.600Z,13.15
2023-05-14T10:03:23.525Z,13.05
2023-05-14T10:04:23.632Z,13.02
2023-05-14T10:05:23.498Z,13.06
2023-05-14T10:06:23.500Z,13.08
2023-05-14T10:07:23.489Z,13.04
2023-05-14T10:08:23.460Z,13.09
2023-05-14T10:09:23.455Z,13.33
2023-05-14T10:10:23.678Z,13.64
2023-05-14T10:11:23.440Z,13.88
2023-05-14T10:12:23.421Z,14.05
2023-05-14T10:13:23.417Z,14.18
2023-05-14T10:14:23.385Z,14.22
2023-05-14T10:15:23.376Z,14.12
2023-05-14T10:16:23.381Z,13.97
2023-05-14T10:17:23.357Z,13.73
2023-05-14T10:18:23.331Z,13.33
2023-05-14T10:19:23.427Z,12.94
2023-05-14T10:20:23.556Z,12.65
2023-05-14T10:21:23.307Z,12.39
2023-05-14T10:22:23.285Z,12.16
2023-05-14T10:23:23.275Z,12.01
2023-05-14T10:24:23.285Z,11.93
2023-05-14T10:25:23.298Z,11.85
2023-05-14T10:26:24.097Z,11.72
2023-05-14T10:27:23.218Z,11.62
2023-05-14T10:28:23.216Z,11.57
2023-05-14T10:29:23.213Z,11.58
2023-05-14T10:30:23.509Z,11.63
2023-05-14T10:31:23.270Z,11.68
2023-05-14T10:32:23.199Z,11.69
2023-05-14T10:33:23.163Z,11.67
2023-05-14T10:34:23.287Z,11.67
2023-05-14T10:35:23.111Z,11.68
2023-05-14T10:36:23.129Z,11.72
2023-05-14T10:37:23.139Z,11.81
2023-05-14T10:38:23.099Z,11.91
2023-05-14T10:39:23.061Z,11.99
2023-05-14T10:40:23.238Z,12.04
2023-05-14T10:41:23.041Z,12.05
2023-05-14T10:42:23.047Z,12.04
2023-05-14T10:43:23.040Z,11.98
2023-05-14T10:44:23.009Z,11.88
2023-05-14T10:45:22.998Z,11.76
2023-05-14T10:46:22.990Z,11.70
2023-05-14T10:47:22.953Z,11.75
2023-05-14T10:48:22.989Z,11.83
2023-05-14T10:49:35.595Z,11.87
2023-05-14T10:50:23.218Z,11.92
2023-05-14T10:51:22.998Z,12.04
2023-05-14T10:52:22.891Z,12.10
2023-05-14T10:53:22.892Z,12.10
2023-05-14T10:54:22.872Z,12.11
2023-05-14T10:55:22.873Z,12.20
2023-05-14T10:56:22.848Z,12.29
2023-05-14T10:57:22.847Z,12.36
2023-05-14T10:58:22.861Z,12.45
2023-05-14T10:59:22.814Z,12.54
2023-05-14T11:00:23.028Z,12.61
2023-05-14T11:01:22.838Z,12.63
2023-05-14T11:02:22.824Z,12.54
2023-05-14T11:03:22.777Z,12.36
2023-05-14T11:04:22.790Z,12.23
2023-05-14T11:05:22.748Z,12.20
2023-05-14T11:06:22.738Z,12.18
2023-05-14T11:07:22.751Z,12.13
2023-05-14T11:08:26.006Z,12.05
2023-05-14T11:09:22.721Z,11.93
2023-05-14T11:10:23.026Z,11.75
2023-05-14T11:11:22.677Z,11.56
2023-05-14T11:12:22.650Z,11.45
2023-05-14T11:13:22.719Z,11.40
2023-05-14T11:14:22.640Z,11.36
2023-05-14T11:15:22.646Z,11.30
2023-05-14T11:16:23.962Z,11.21
2023-05-14T11:17:22.585Z,11.13
2023-05-14T11:18:22.594Z,11.08
2023-05-14T11:19:22.580Z,11.11
2023-05-14T11:20:22.882Z,11.15
2023-05-14T11:21:22.567Z,11.18
2023-05-14T11:22:22.524Z,11.21
2023-05-14T11:23:22.518Z,11.23
2023-05-14T11:24:22.535Z,11.24
2023-05-14T11:25:22.492Z,11.26
2023-05-14T11:26:22.509Z,11.30
2023-05-14T11:27:22.453Z,11.34
2023-05-14T11:28:22.477Z,11.35
2023-05-14T11:29:22.439Z,11.32
2023-05-14T11:30:22.838Z,11.20
2023-05-14T11:31:22.461Z,11.03
2023-05-14T11:32:22.433Z,10.88
2023-05-14T11:33:22.381Z,10.78
2023-05-14T11:34:22.368Z,10.73
2023-05-14T11:35:22.399Z,10.72
2023-05-14T11:36:22.360Z,10.70
2023-05-14T11:37:22.338Z,10.70
2023-05-14T11:38:22.327Z,10.74
2023-05-14T11:39:22.316Z,10.86
2023-05-14T11:40:22.591Z,11.01
2023-05-14T11:41:22.281Z,11.20
2023-05-14T11:42:22.310Z,11.41
2023-05-14T11:43:22.261Z,11.59
2023-05-14T11:44:22.248Z,11.73
2023-05-14T11:45:22.229Z,11.82
2023-05-14T11:46:22.252Z,11.84
2023-05-14T11:47:22.217Z,11.85
2023-05-14T11:48:22.243Z,11.84
2023-05-14T11:49:22.208Z,11.78
2023-05-14T11:50:22.446Z,11.67
2023-05-14T11:51:22.150Z,11.59
2023-05-14T11:52:22.174Z,11.53
2023-05-14T11:53:22.134Z,11.48
2023-05-14T11:54:22.126Z,11.42
2023-05-14T11:55:22.108Z,11.38
2023-05-14T11:56:22.094Z,11.31
2023-05-14T11:57:22.102Z,11.24
2023-05-14T11:58:22.061Z,11.23
2023-05-14T11:59:22.051Z,11.18
2023-05-14T12:00:22.417Z,11.11
2023-05-14T12:01:22.018Z,11.11
2023-05-14T12:02:22.041Z,11.18
2023-05-14T12:03:22.224Z,11.28
2023-05-14T12:04:22.029Z,11.39
2023-05-14T12:05:21.973Z,11.55
2023-05-14T12:06:21.980Z,11.72
2023-05-14T12:07:21.957Z,11.86
2023-05-14T12:08:21.946Z,12.02
2023-05-14T12:09:21.944Z,12.16
2023-05-14T12:10:22.083Z,12.23
2023-05-14T12:11:21.925Z,12.28
2023-05-14T12:12:21.909Z,12.36
2023-05-14T12:13:21.874Z,12.48
2023-05-14T12:14:21.867Z,12.59
2023-05-14T12:15:22.109Z,12.66
2023-05-14T12:16:21.879Z,12.69
2023-05-14T12:17:21.892Z,12.70
2023-05-14T12:18:24.942Z,12.75
2023-05-14T12:19:21.912Z,12.84
2023-05-14T12:20:21.948Z,12.91
2023-05-14T12:21:21.783Z,12.95
2023-05-14T12:22:21.772Z,12.97
2023-05-14T12:23:21.767Z,12.98
2023-05-14T12:24:21.729Z,13.04
2023-05-14T12:25:21.734Z,13.11
2023-05-14T12:26:21.701Z,13.09
2023-05-14T12:27:21.691Z,13.00
2023-05-14T12:28:21.705Z,12.89
2023-05-14T12:29:21.668Z,12.79
2023-05-14T12:30:22.300Z,12.70
2023-05-14T12:31:21.685Z,12.64
2023-05-14T12:32:21.676Z,12.50
2023-05-14T12:33:21.647Z,12.30
2023-05-14T12:34:21.600Z,12.11
2023-05-14T12:35:21.673Z,11.96
2023-05-14T12:36:22.386Z,11.83
2023-05-14T12:37:21.566Z,11.75
2023-05-14T12:38:21.557Z,11.69
2023-05-14T12:39:21.558Z,11.67
2023-05-14T12:40:21.716Z,11.69
2023-05-14T12:41:21.513Z,11.74
2023-05-14T12:42:21.509Z,11.83
2023-05-14T12:43:21.513Z,11.94
2023-05-14T12:44:21.488Z,12.04
2023-05-14T12:45:21.533Z,12.13
2023-05-14T12:46:21.548Z,12.21
2023-05-14T12:47:21.537Z,12.26
2023-05-14T12:48:21.471Z,12.17
2023-05-14T12:49:21.426Z,12.00
2023-05-14T12:50:21.428Z,11.88
2023-05-14T12:51:21.452Z,11.79
2023-05-14T12:52:36.184Z,11.74
2023-05-14T12:53:21.385Z,11.74
2023-05-14T12:54:21.353Z,11.74
2023-05-14T12:55:22.150Z,11.74
2023-05-14T12:56:22.104Z,11.76
2023-05-14T12:57:21.333Z,11.80
2023-05-14T12:58:21.325Z,11.84
2023-05-14T12:59:21.310Z,11.86
2023-05-14T13:00:21.307Z,11.96
2023-05-14T13:01:21.339Z,12.12
2023-05-14T13:02:21.249Z,12.26
2023-05-14T13:03:21.316Z,12.33
2023-05-14T13:04:21.300Z,12.34
2023-05-14T13:05:21.235Z,12.37
2023-05-14T13:06:21.189Z,12.45
2023-05-14T13:07:21.203Z,12.59